sensor_id;sensor_type;location;lat;lon;timestamp;P1;durP1;ratioP1;P2;durP2;ratioP2
10059;SDS011;5069;49.306;8.636;2023-05-02T00:02:38;6.17;;;5.63;;
10059;SDS011;5069;49.306;8.636;2023-05-02T00:05:39;6.20;;;5.57;;
10059;SDS011;5069;49.306;8.636;2023-05-02T00:08:41;6.40;;;5.87;;
10059;SDS011;5069;49.306;8.636;2023-05-02T00:11:42;5.83;;;5.33;;
10059;SDS011;5069;49.306;8.636;2023-05-02T00:14:44;7.03;;;6.37;;
10059;SDS011;5069;49.306;8.636;2023-05-02T00:17:45;6.40;;;5.80;;
10059;SDS011;5069;49.306;8.636;2023-05-02T00:20:47;6.17;;;5.67;;
10059;SDS011;5069;49.306;8.636;2023-05-02T00:23:50;6.50;;;5.90;;
10059;SDS011;5069;49.306;8.636;2023-05-02T00:26:51;9.73;;;6.20;;
10059;SDS011;5069;49.306;8.636;2023-05-02T00:29:53;6.87;;;6.20;;
10059;SDS011;5069;49.306;8.636;2023-05-02T00:32:55;7.50;;;6.80;;
10059;SDS011;5069;49.306;8.636;2023-05-02T00:35:56;7.10;;;5.77;;
10059;SDS011;5069;49.306;8.636;2023-05-02T00:38:58;7.07;;;6.37;;
10059;SDS011;5069;49.306;8.636;2023-05-02T00:41:59;7.23;;;6.53;;
10059;SDS011;5069;49.306;8.636;2023-05-02T00:45:02;8.13;;;7.27;;
10059;SDS011;5069;49.306;8.636;2023-05-02T00:48:06;7.73;;;7.00;;
10059;SDS011;5069;49.306;8.636;2023-05-02T00:51:09;8.63;;;7.73;;
10059;SDS011;5069;49.306;8.636;2023-05-02T00:54:12;14.00;;;7.63;;
10059;SDS011;5069;49.306;8.636;2023-05-02T00:57:14;8.00;;;7.30;;
10059;SDS011;5069;49.306;8.636;2023-05-02T01:00:16;8.20;;;7.40;;
10059;SDS011;5069;49.306;8.636;2023-05-02T01:06:58;7.77;;;7.07;;
10059;SDS011;5069;49.306;8.636;2023-05-02T01:10:18;8.37;;;7.50;;
10059;SDS011;5069;49.306;8.636;2023-05-02T01:13:31;8.30;;;7.50;;
10059;SDS011;5069;49.306;8.636;2023-05-02T01:16:34;8.73;;;6.70;;
10059;SDS011;5069;49.306;8.636;2023-05-02T01:19:41;7.70;;;6.90;;
10059;SDS011;5069;49.306;8.636;2023-05-02T01:22:51;9.50;;;7.83;;
10059;SDS011;5069;49.306;8.636;2023-05-02T01:26:08;10.03;;;7.67;;
10059;SDS011;5069;49.306;8.636;2023-05-02T01:29:17;8.63;;;7.67;;
10059;SDS011;5069;49.306;8.636;2023-05-02T01:32:22;8.33;;;7.50;;
10059;SDS011;5069;49.306;8.636;2023-05-02T01:35:26;7.40;;;6.70;;
10059;SDS011;5069;49.306;8.636;2023-05-02T01:38:30;7.10;;;6.40;;
10059;SDS011;5069;49.306;8.636;2023-05-02T01:41:34;6.60;;;6.07;;
10059;SDS011;5069;49.306;8.636;2023-05-02T01:44:37;6.53;;;5.93;;
10059;SDS011;5069;49.306;8.636;2023-05-02T01:47:41;6.83;;;5.83;;
10059;SDS011;5069;49.306;8.636;2023-05-02T01:50:44;6.60;;;5.90;;
10059;SDS011;5069;49.306;8.636;2023-05-02T01:53:48;7.60;;;5.77;;
10059;SDS011;5069;49.306;8.636;2023-05-02T01:56:51;9.43;;;5.43;;
10059;SDS011;5069;49.306;8.636;2023-05-02T01:59:54;6.13;;;5.57;;
10059;SDS011;5069;49.306;8.636;2023-05-02T02:02:57;7.73;;;6.20;;
10059;SDS011;5069;49.306;8.636;2023-05-02T02:06:00;5.80;;;5.30;;
10059;SDS011;5069;49.306;8.636;2023-05-02T02:09:03;6.93;;;5.57;;
10059;SDS011;5069;49.306;8.636;2023-05-02T02:12:16;5.83;;;5.33;;
10059;SDS011;5069;49.306;8.636;2023-05-02T02:18:34;5.53;;;4.80;;
10059;SDS011;5069;49.306;8.636;2023-05-02T02:21:38;5.07;;;4.57;;
10059;SDS011;5069;49.306;8.636;2023-05-02T02:24:42;5.10;;;4.60;;
10059;SDS011;5069;49.306;8.636;2023-05-02T02:27:47;4.97;;;4.57;;
10059;SDS011;5069;49.306;8.636;2023-05-02T02:30:49;5.10;;;4.70;;
10059;SDS011;5069;49.306;8.636;2023-05-02T02:33:50;6.37;;;5.10;;
10059;SDS011;5069;49.306;8.636;2023-05-02T02:37:04;8.03;;;5.77;;
10059;SDS011;5069;49.306;8.636;2023-05-02T02:40:18;6.50;;;5.83;;
10059;SDS011;5069;49.306;8.636;2023-05-02T02:46:45;6.60;;;5.90;;
10059;SDS011;5069;49.306;8.636;2023-05-02T02:50:37;6.47;;;5.83;;
10059;SDS011;5069;49.306;8.636;2023-05-02T02:53:39;6.47;;;5.77;;
10059;SDS011;5069;49.306;8.636;2023-05-02T02:57:02;7.00;;;6.30;;
10059;SDS011;5069;49.306;8.636;2023-05-02T03:00:10;6.03;;;5.43;;
10059;SDS011;5069;49.306;8.636;2023-05-02T03:03:16;6.40;;;5.90;;
10059;SDS011;5069;49.306;8.636;2023-05-02T03:06:19;7.37;;;6.47;;
10059;SDS011;5069;49.306;8.636;2023-05-02T03:09:21;6.67;;;5.97;;
10059;SDS011;5069;49.306;8.636;2023-05-02T03:12:24;7.47;;;5.73;;
10059;SDS011;5069;49.306;8.636;2023-05-02T03:19:12;6.40;;;5.80;;
10059;SDS011;5069;49.306;8.636;2023-05-02T03:22:13;6.63;;;5.97;;
10059;SDS011;5069;49.306;8.636;2023-05-02T03:25:15;8.30;;;7.40;;
10059;SDS011;5069;49.306;8.636;2023-05-02T03:28:20;7.60;;;6.93;;
10059;SDS011;5069;49.306;8.636;2023-05-02T03:31:23;7.10;;;6.50;;
10059;SDS011;5069;49.306;8.636;2023-05-02T03:34:27;7.67;;;6.90;;
10059;SDS011;5069;49.306;8.636;2023-05-02T03:37:29;8.20;;;6.97;;
10059;SDS011;5069;49.306;8.636;2023-05-02T03:40:33;7.93;;;7.10;;
10059;SDS011;5069;49.306;8.636;2023-05-02T03:43:34;7.80;;;7.10;;
10059;SDS011;5069;49.306;8.636;2023-05-02T03:46:36;8.63;;;7.77;;
10059;SDS011;5069;49.306;8.636;2023-05-02T03:49:42;8.63;;;7.23;;
10059;SDS011;5069;49.306;8.636;2023-05-02T03:52:44;7.97;;;7.23;;
10059;SDS011;5069;49.306;8.636;2023-05-02T03:55:46;8.40;;;7.40;;
10059;SDS011;5069;49.306;8.636;2023-05-02T03:58:56;10.77;;;7.53;;
10059;SDS011;5069;49.306;8.636;2023-05-02T04:02:00;7.97;;;7.17;;
10059;SDS011;5069;49.306;8.636;2023-05-02T04:05:11;7.47;;;6.73;;
10059;SDS011;5069;49.306;8.636;2023-05-02T04:08:13;8.80;;;7.00;;
10059;SDS011;5069;49.306;8.636;2023-05-02T04:11:15;7.40;;;6.70;;
10059;SDS011;5069;49.306;8.636;2023-05-02T04:14:17;9.07;;;6.90;;
10059;SDS011;5069;49.306;8.636;2023-05-02T04:17:20;7.77;;;7.07;;
10059;SDS011;5069;49.306;8.636;2023-05-02T04:20:23;7.53;;;6.83;;
10059;SDS011;5069;49.306;8.636;2023-05-02T04:23:27;7.30;;;6.60;;
10059;SDS011;5069;49.306;8.636;2023-05-02T04:26:33;7.23;;;6.50;;
10059;SDS011;5069;49.306;8.636;2023-05-02T04:29:39;7.07;;;6.30;;
10059;SDS011;5069;49.306;8.636;2023-05-02T04:32:42;6.60;;;5.90;;
10059;SDS011;5069;49.306;8.636;2023-05-02T04:35:45;8.20;;;6.47;;
10059;SDS011;5069;49.306;8.636;2023-05-02T04:38:48;8.40;;;6.90;;
10059;SDS011;5069;49.306;8.636;2023-05-02T04:41:50;8.47;;;6.70;;
10059;SDS011;5069;49.306;8.636;2023-05-02T04:44:53;8.20;;;6.30;;
10059;SDS011;5069;49.306;8.636;2023-05-02T04:47:55;7.80;;;5.60;;
10059;SDS011;5069;49.306;8.636;2023-05-02T04:50:57;6.23;;;5.40;;
10059;SDS011;5069;49.306;8.636;2023-05-02T04:53:58;6.90;;;5.13;;
10059;SDS011;5069;49.306;8.636;2023-05-02T04:57:01;5.57;;;4.97;;
10059;SDS011;5069;49.306;8.636;2023-05-02T05:00:06;7.50;;;5.53;;
10059;SDS011;5069;49.306;8.636;2023-05-02T05:03:09;6.73;;;5.37;;
10059;SDS011;5069;49.306;8.636;2023-05-02T05:06:11;6.97;;;6.23;;
10059;SDS011;5069;49.306;8.636;2023-05-02T05:09:12;6.50;;;5.90;;
10059;SDS011;5069;49.306;8.636;2023-05-02T05:12:14;10.87;;;6.03;;
10059;SDS011;5069;49.306;8.636;2023-05-02T05:15:16;7.00;;;6.10;;
10059;SDS011;5069;49.306;8.636;2023-05-02T05:18:24;7.40;;;6.70;;
10059;SDS011;5069;49.306;8.636;2023-05-02T05:21:26;7.97;;;6.33;;
10059;SDS011;5069;49.306;8.636;2023-05-02T05:24:29;7.10;;;6.50;;
10059;SDS011;5069;49.306;8.636;2023-05-02T05:27:32;8.07;;;6.37;;
10059;SDS011;5069;49.306;8.636;2023-05-02T05:30:34;7.00;;;6.30;;
10059;SDS011;5069;49.306;8.636;2023-05-02T05:33:38;8.17;;;5.80;;
10059;SDS011;5069;49.306;8.636;2023-05-02T05:36:42;8.17;;;6.60;;
10059;SDS011;5069;49.306;8.636;2023-05-02T05:39:43;8.70;;;6.67;;
10059;SDS011;5069;49.306;8.636;2023-05-02T05:42:46;7.73;;;7.03;;
10059;SDS011;5069;49.306;8.636;2023-05-02T05:45:55;8.27;;;7.30;;
10059;SDS011;5069;49.306;8.636;2023-05-02T05:48:57;8.97;;;7.57;;
10059;SDS011;5069;49.306;8.636;2023-05-02T05:52:01;9.93;;;6.70;;
10059;SDS011;5069;49.306;8.636;2023-05-02T05:55:03;8.63;;;6.60;;
10059;SDS011;5069;49.306;8.636;2023-05-02T05:58:06;9.77;;;7.20;;
10059;SDS011;5069;49.306;8.636;2023-05-02T06:01:09;8.37;;;7.57;;
10059;SDS011;5069;49.306;8.636;2023-05-02T06:04:11;9.20;;;8.30;;
10059;SDS011;5069;49.306;8.636;2023-05-02T06:07:17;10.00;;;8.03;;
10059;SDS011;5069;49.306;8.636;2023-05-02T06:10:20;12.03;;;8.67;;
10059;SDS011;5069;49.306;8.636;2023-05-02T06:13:21;11.00;;;9.10;;
10059;SDS011;5069;49.306;8.636;2023-05-02T06:16:24;11.70;;;10.60;;
10059;SDS011;5069;49.306;8.636;2023-05-02T06:19:25;14.53;;;12.73;;
10059;SDS011;5069;49.306;8.636;2023-05-02T06:22:27;14.77;;;13.23;;
10059;SDS011;5069;49.306;8.636;2023-05-02T06:25:28;17.67;;;13.60;;
10059;SDS011;5069;49.306;8.636;2023-05-02T06:28:30;16.70;;;14.97;;
10059;SDS011;5069;49.306;8.636;2023-05-02T06:31:32;17.23;;;15.37;;
10059;SDS011;5069;49.306;8.636;2023-05-02T06:34:33;17.83;;;15.93;;
10059;SDS011;5069;49.306;8.636;2023-05-02T06:37:35;17.30;;;15.50;;
10059;SDS011;5069;49.306;8.636;2023-05-02T06:40:36;19.77;;;17.63;;
10059;SDS011;5069;49.306;8.636;2023-05-02T06:43:45;19.20;;;16.80;;
10059;SDS011;5069;49.306;8.636;2023-05-02T06:46:46;19.10;;;17.10;;
10059;SDS011;5069;49.306;8.636;2023-05-02T06:49:48;19.90;;;16.87;;
10059;SDS011;5069;49.306;8.636;2023-05-02T06:52:51;18.97;;;16.90;;
10059;SDS011;5069;49.306;8.636;2023-05-02T06:55:52;18.37;;;16.47;;
10059;SDS011;5069;49.306;8.636;2023-05-02T06:58:54;21.57;;;19.10;;
10059;SDS011;5069;49.306;8.636;2023-05-02T07:01:55;23.87;;;21.10;;
10059;SDS011;5069;49.306;8.636;2023-05-02T07:04:56;26.40;;;23.47;;
10059;SDS011;5069;49.306;8.636;2023-05-02T07:07:58;27.47;;;23.60;;
10059;SDS011;5069;49.306;8.636;2023-05-02T07:10:59;29.27;;;23.53;;
10059;SDS011;5069;49.306;8.636;2023-05-02T07:14:02;28.20;;;23.63;;
10059;SDS011;5069;49.306;8.636;2023-05-02T07:17:03;35.17;;;27.23;;
10059;SDS011;5069;49.306;8.636;2023-05-02T07:20:05;33.37;;;27.57;;
10059;SDS011;5069;49.306;8.636;2023-05-02T07:23:07;29.97;;;25.07;;
10059;SDS011;5069;49.306;8.636;2023-05-02T07:26:09;36.10;;;28.37;;
10059;SDS011;5069;49.306;8.636;2023-05-02T07:29:11;35.60;;;28.27;;
10059;SDS011;5069;49.306;8.636;2023-05-02T07:32:12;36.37;;;28.63;;
10059;SDS011;5069;49.306;8.636;2023-05-02T07:35:14;38.50;;;29.93;;
10059;SDS011;5069;49.306;8.636;2023-05-02T07:38:15;34.87;;;28.90;;
10059;SDS011;5069;49.306;8.636;2023-05-02T07:41:17;36.83;;;29.63;;
10059;SDS011;5069;49.306;8.636;2023-05-02T07:44:18;37.37;;;29.20;;
10059;SDS011;5069;49.306;8.636;2023-05-02T07:47:21;38.00;;;30.47;;
10059;SDS011;5069;49.306;8.636;2023-05-02T07:50:23;38.27;;;30.57;;
10059;SDS011;5069;49.306;8.636;2023-05-02T07:53:24;36.70;;;29.33;;
10059;SDS011;5069;49.306;8.636;2023-05-02T07:56:26;34.67;;;28.70;;
10059;SDS011;5069;49.306;8.636;2023-05-02T07:59:28;40.47;;;30.37;;
10059;SDS011;5069;49.306;8.636;2023-05-02T08:02:31;39.37;;;30.03;;
10059;SDS011;5069;49.306;8.636;2023-05-02T08:05:33;37.33;;;30.63;;
10059;SDS011;5069;49.306;8.636;2023-05-02T08:08:34;37.10;;;29.67;;
10059;SDS011;5069;49.306;8.636;2023-05-02T08:11:36;38.30;;;30.93;;
10059;SDS011;5069;49.306;8.636;2023-05-02T08:14:37;39.87;;;32.10;;
10059;SDS011;5069;49.306;8.636;2023-05-02T08:17:39;38.53;;;30.67;;
10059;SDS011;5069;49.306;8.636;2023-05-02T08:20:41;40.17;;;30.57;;
10059;SDS011;5069;49.306;8.636;2023-05-02T08:23:43;36.07;;;28.47;;
10059;SDS011;5069;49.306;8.636;2023-05-02T08:26:46;35.47;;;27.67;;
10059;SDS011;5069;49.306;8.636;2023-05-02T08:29:47;33.00;;;25.67;;
10059;SDS011;5069;49.306;8.636;2023-05-02T08:32:49;30.43;;;24.23;;
10059;SDS011;5069;49.306;8.636;2023-05-02T08:35:50;30.23;;;23.07;;
10059;SDS011;5069;49.306;8.636;2023-05-02T08:38:53;28.30;;;22.00;;
10059;SDS011;5069;49.306;8.636;2023-05-02T08:41:54;25.40;;;20.77;;
10059;SDS011;5069;49.306;8.636;2023-05-02T08:44:56;24.10;;;19.83;;
10059;SDS011;5069;49.306;8.636;2023-05-02T08:47:58;24.03;;;20.53;;
10059;SDS011;5069;49.306;8.636;2023-05-02T08:51:00;25.83;;;20.87;;
10059;SDS011;5069;49.306;8.636;2023-05-02T08:54:03;27.60;;;22.23;;
10059;SDS011;5069;49.306;8.636;2023-05-02T08:57:07;26.07;;;21.57;;
10059;SDS011;5069;49.306;8.636;2023-05-02T09:00:09;24.57;;;20.97;;
10059;SDS011;5069;49.306;8.636;2023-05-02T09:06:31;27.43;;;21.83;;
10059;SDS011;5069;49.306;8.636;2023-05-02T09:09:33;28.13;;;21.30;;
10059;SDS011;5069;49.306;8.636;2023-05-02T09:12:34;30.10;;;22.37;;
10059;SDS011;5069;49.306;8.636;2023-05-02T09:15:36;26.73;;;22.43;;
10059;SDS011;5069;49.306;8.636;2023-05-02T09:18:38;26.73;;;22.73;;
10059;SDS011;5069;49.306;8.636;2023-05-02T09:21:49;28.67;;;23.50;;
10059;SDS011;5069;49.306;8.636;2023-05-02T09:24:54;31.50;;;24.97;;
10059;SDS011;5069;49.306;8.636;2023-05-02T09:27:55;32.63;;;26.43;;
10059;SDS011;5069;49.306;8.636;2023-05-02T09:31:07;32.30;;;26.17;;
10059;SDS011;5069;49.306;8.636;2023-05-02T09:34:15;34.33;;;25.83;;
10059;SDS011;5069;49.306;8.636;2023-05-02T09:37:33;34.67;;;26.70;;
10059;SDS011;5069;49.306;8.636;2023-05-02T09:40:35;32.97;;;26.90;;
10059;SDS011;5069;49.306;8.636;2023-05-02T09:43:38;33.73;;;26.83;;
10059;SDS011;5069;49.306;8.636;2023-05-02T09:46:40;33.47;;;25.97;;
10059;SDS011;5069;49.306;8.636;2023-05-02T09:49:43;34.40;;;26.03;;
10059;SDS011;5069;49.306;8.636;2023-05-02T09:52:59;31.97;;;26.20;;
10059;SDS011;5069;49.306;8.636;2023-05-02T09:56:02;31.87;;;25.27;;
10059;SDS011;5069;49.306;8.636;2023-05-02T09:59:11;29.87;;;24.33;;
10059;SDS011;5069;49.306;8.636;2023-05-02T10:02:14;31.00;;;23.87;;
10059;SDS011;5069;49.306;8.636;2023-05-02T10:05:16;27.30;;;22.17;;
10059;SDS011;5069;49.306;8.636;2023-05-02T10:08:18;25.90;;;20.73;;
10059;SDS011;5069;49.306;8.636;2023-05-02T10:11:20;24.63;;;19.90;;
10059;SDS011;5069;49.306;8.636;2023-05-02T10:14:23;23.73;;;19.33;;
10059;SDS011;5069;49.306;8.636;2023-05-02T10:17:30;22.57;;;18.63;;
10059;SDS011;5069;49.306;8.636;2023-05-02T10:20:34;20.53;;;17.53;;
10059;SDS011;5069;49.306;8.636;2023-05-02T10:23:42;21.37;;;17.57;;
10059;SDS011;5069;49.306;8.636;2023-05-02T10:26:46;18.53;;;16.07;;
10059;SDS011;5069;49.306;8.636;2023-05-02T10:29:48;19.23;;;15.83;;
10059;SDS011;5069;49.306;8.636;2023-05-02T10:32:52;21.43;;;17.03;;
10059;SDS011;5069;49.306;8.636;2023-05-02T10:35:56;22.10;;;17.03;;
10059;SDS011;5069;49.306;8.636;2023-05-02T10:38:58;21.90;;;18.37;;
10059;SDS011;5069;49.306;8.636;2023-05-02T10:42:01;21.30;;;16.93;;
10059;SDS011;5069;49.306;8.636;2023-05-02T10:45:08;25.63;;;21.00;;
10059;SDS011;5069;49.306;8.636;2023-05-02T10:51:27;26.27;;;19.83;;
10059;SDS011;5069;49.306;8.636;2023-05-02T10:54:32;21.07;;;17.07;;
10059;SDS011;5069;49.306;8.636;2023-05-02T10:57:33;25.00;;;18.27;;
10059;SDS011;5069;49.306;8.636;2023-05-02T11:00:35;26.73;;;19.87;;
10059;SDS011;5069;49.306;8.636;2023-05-02T11:03:52;27.37;;;20.73;;
10059;SDS011;5069;49.306;8.636;2023-05-02T11:26:21;23.10;;;17.23;;
10059;SDS011;5069;49.306;8.636;2023-05-02T11:29:50;21.77;;;16.77;;
10059;SDS011;5069;49.306;8.636;2023-05-02T11:35:53;19.10;;;15.13;;
10059;SDS011;5069;49.306;8.636;2023-05-02T11:38:57;22.23;;;16.87;;
10059;SDS011;5069;49.306;8.636;2023-05-02T11:41:58;19.63;;;15.13;;
10059;SDS011;5069;49.306;8.636;2023-05-02T11:44:59;16.43;;;13.33;;
10059;SDS011;5069;49.306;8.636;2023-05-02T11:48:05;18.20;;;13.47;;
10059;SDS011;5069;49.306;8.636;2023-05-02T11:51:07;17.23;;;12.37;;
10059;SDS011;5069;49.306;8.636;2023-05-02T11:54:09;14.63;;;10.93;;
10059;SDS011;5069;49.306;8.636;2023-05-02T11:57:18;12.40;;;9.67;;
10059;SDS011;5069;49.306;8.636;2023-05-02T12:00:25;13.83;;;10.73;;
10059;SDS011;5069;49.306;8.636;2023-05-02T12:03:28;13.63;;;9.80;;
10059;SDS011;5069;49.306;8.636;2023-05-02T12:06:31;12.87;;;9.67;;
10059;SDS011;5069;49.306;8.636;2023-05-02T12:09:33;12.97;;;9.50;;
10059;SDS011;5069;49.306;8.636;2023-05-02T12:12:35;12.97;;;9.07;;
10059;SDS011;5069;49.306;8.636;2023-05-02T12:15:37;12.63;;;9.60;;
10059;SDS011;5069;49.306;8.636;2023-05-02T12:18:39;11.90;;;9.57;;
10059;SDS011;5069;49.306;8.636;2023-05-02T12:21:41;11.63;;;9.30;;
10059;SDS011;5069;49.306;8.636;2023-05-02T12:24:42;11.07;;;9.00;;
10059;SDS011;5069;49.306;8.636;2023-05-02T12:28:00;10.60;;;8.07;;
10059;SDS011;5069;49.306;8.636;2023-05-02T12:31:09;15.80;;;8.50;;
10059;SDS011;5069;49.306;8.636;2023-05-02T12:34:11;12.43;;;9.53;;
10059;SDS011;5069;49.306;8.636;2023-05-02T12:37:12;11.30;;;8.10;;
10059;SDS011;5069;49.306;8.636;2023-05-02T12:40:23;10.63;;;8.10;;
10059;SDS011;5069;49.306;8.636;2023-05-02T12:43:26;12.70;;;8.13;;
10059;SDS011;5069;49.306;8.636;2023-05-02T12:46:27;7.80;;;5.93;;
10059;SDS011;5069;49.306;8.636;2023-05-02T12:49:29;11.50;;;6.07;;
10059;SDS011;5069;49.306;8.636;2023-05-02T12:52:50;7.73;;;5.80;;
10059;SDS011;5069;49.306;8.636;2023-05-02T12:56:02;7.40;;;6.57;;
10059;SDS011;5069;49.306;8.636;2023-05-02T12:59:03;7.37;;;6.07;;
10059;SDS011;5069;49.306;8.636;2023-05-02T13:02:05;8.63;;;6.80;;
10059;SDS011;5069;49.306;8.636;2023-05-02T13:05:14;9.27;;;6.67;;
10059;SDS011;5069;49.306;8.636;2023-05-02T13:08:16;10.03;;;6.33;;
10059;SDS011;5069;49.306;8.636;2023-05-02T13:11:17;13.00;;;7.87;;
10059;SDS011;5069;49.306;8.636;2023-05-02T13:14:20;9.77;;;6.17;;
10059;SDS011;5069;49.306;8.636;2023-05-02T13:17:22;13.70;;;7.20;;
10059;SDS011;5069;49.306;8.636;2023-05-02T13:20:23;12.53;;;7.57;;
10059;SDS011;5069;49.306;8.636;2023-05-02T13:23:25;7.90;;;4.93;;
10059;SDS011;5069;49.306;8.636;2023-05-02T13:26:26;14.47;;;7.70;;
10059;SDS011;5069;49.306;8.636;2023-05-02T13:29:28;6.10;;;4.80;;
10059;SDS011;5069;49.306;8.636;2023-05-02T13:32:29;6.97;;;5.43;;
10059;SDS011;5069;49.306;8.636;2023-05-02T13:35:31;8.40;;;4.53;;
10059;SDS011;5069;49.306;8.636;2023-05-02T13:38:35;7.27;;;4.33;;
10059;SDS011;5069;49.306;8.636;2023-05-02T13:41:36;6.13;;;3.77;;
10059;SDS011;5069;49.306;8.636;2023-05-02T13:44:38;4.60;;;3.33;;
10059;SDS011;5069;49.306;8.636;2023-05-02T13:47:39;3.63;;;3.13;;
10059;SDS011;5069;49.306;8.636;2023-05-02T13:50:41;4.60;;;3.70;;
10059;SDS011;5069;49.306;8.636;2023-05-02T13:53:43;3.93;;;3.30;;
10059;SDS011;5069;49.306;8.636;2023-05-02T13:56:45;3.20;;;2.90;;
10059;SDS011;5069;49.306;8.636;2023-05-02T13:59:46;4.67;;;3.60;;
10059;SDS011;5069;49.306;8.636;2023-05-02T14:02:48;4.87;;;3.80;;
10059;SDS011;5069;49.306;8.636;2023-05-02T14:05:49;4.10;;;3.47;;
10059;SDS011;5069;49.306;8.636;2023-05-02T14:08:51;6.47;;;4.10;;
10059;SDS011;5069;49.306;8.636;2023-05-02T14:11:52;5.07;;;4.30;;
10059;SDS011;5069;49.306;8.636;2023-05-02T14:14:54;5.90;;;4.47;;
10059;SDS011;5069;49.306;8.636;2023-05-02T14:17:55;5.60;;;4.23;;
10059;SDS011;5069;49.306;8.636;2023-05-02T14:20:58;5.37;;;4.07;;
10059;SDS011;5069;49.306;8.636;2023-05-02T14:24:00;5.77;;;3.77;;
10059;SDS011;5069;49.306;8.636;2023-05-02T14:27:01;3.33;;;2.97;;
10059;SDS011;5069;49.306;8.636;2023-05-02T14:30:04;5.33;;;3.37;;
10059;SDS011;5069;49.306;8.636;2023-05-02T14:33:07;5.07;;;3.30;;
10059;SDS011;5069;49.306;8.636;2023-05-02T14:36:09;5.67;;;3.90;;
10059;SDS011;5069;49.306;8.636;2023-05-02T14:39:10;4.77;;;4.07;;
10059;SDS011;5069;49.306;8.636;2023-05-02T14:42:11;6.90;;;4.80;;
10059;SDS011;5069;49.306;8.636;2023-05-02T14:45:13;6.43;;;4.93;;
10059;SDS011;5069;49.306;8.636;2023-05-02T14:48:14;6.60;;;4.90;;
10059;SDS011;5069;49.306;8.636;2023-05-02T14:51:17;5.07;;;4.23;;
10059;SDS011;5069;49.306;8.636;2023-05-02T14:54:19;7.10;;;4.60;;
10059;SDS011;5069;49.306;8.636;2023-05-02T14:57:20;6.50;;;4.50;;
10059;SDS011;5069;49.306;8.636;2023-05-02T15:00:22;5.10;;;4.27;;
10059;SDS011;5069;49.306;8.636;2023-05-02T15:03:23;7.00;;;5.20;;
10059;SDS011;5069;49.306;8.636;2023-05-02T15:06:28;6.30;;;4.67;;
10059;SDS011;5069;49.306;8.636;2023-05-02T15:09:33;5.23;;;4.33;;
10059;SDS011;5069;49.306;8.636;2023-05-02T15:12:34;5.77;;;4.40;;
10059;SDS011;5069;49.306;8.636;2023-05-02T15:15:36;6.57;;;4.73;;
10059;SDS011;5069;49.306;8.636;2023-05-02T15:18:37;6.23;;;4.90;;
10059;SDS011;5069;49.306;8.636;2023-05-02T15:21:39;6.20;;;4.77;;
10059;SDS011;5069;49.306;8.636;2023-05-02T15:24:40;8.13;;;4.90;;
10059;SDS011;5069;49.306;8.636;2023-05-02T15:27:42;6.77;;;4.63;;
10059;SDS011;5069;49.306;8.636;2023-05-02T15:30:44;6.40;;;4.63;;
10059;SDS011;5069;49.306;8.636;2023-05-02T15:33:46;5.87;;;4.47;;
10059;SDS011;5069;49.306;8.636;2023-05-02T15:36:47;5.77;;;4.50;;
10059;SDS011;5069;49.306;8.636;2023-05-02T15:39:50;5.13;;;4.53;;
10059;SDS011;5069;49.306;8.636;2023-05-02T15:42:52;5.80;;;4.37;;
10059;SDS011;5069;49.306;8.636;2023-05-02T15:45:55;7.37;;;5.23;;
10059;SDS011;5069;49.306;8.636;2023-05-02T15:48:59;6.73;;;4.30;;
10059;SDS011;5069;49.306;8.636;2023-05-02T15:52:01;5.57;;;4.20;;
10059;SDS011;5069;49.306;8.636;2023-05-02T15:55:03;5.33;;;4.10;;
10059;SDS011;5069;49.306;8.636;2023-05-02T15:58:05;4.93;;;3.77;;
10059;SDS011;5069;49.306;8.636;2023-05-02T16:01:06;3.83;;;3.10;;
10059;SDS011;5069;49.306;8.636;2023-05-02T16:04:08;3.87;;;3.17;;
10059;SDS011;5069;49.306;8.636;2023-05-02T16:07:10;3.43;;;2.97;;
10059;SDS011;5069;49.306;8.636;2023-05-02T16:10:11;3.00;;;2.37;;
10059;SDS011;5069;49.306;8.636;2023-05-02T16:13:13;2.97;;;2.63;;
10059;SDS011;5069;49.306;8.636;2023-05-02T16:16:14;7.60;;;2.80;;
10059;SDS011;5069;49.306;8.636;2023-05-02T16:19:16;4.57;;;3.57;;
10059;SDS011;5069;49.306;8.636;2023-05-02T16:22:18;3.63;;;3.30;;
10059;SDS011;5069;49.306;8.636;2023-05-02T16:25:19;4.27;;;3.17;;
10059;SDS011;5069;49.306;8.636;2023-05-02T16:28:21;3.90;;;3.20;;
10059;SDS011;5069;49.306;8.636;2023-05-02T16:31:22;5.63;;;3.03;;
10059;SDS011;5069;49.306;8.636;2023-05-02T16:34:24;3.10;;;2.80;;
10059;SDS011;5069;49.306;8.636;2023-05-02T16:37:26;5.40;;;3.07;;
10059;SDS011;5069;49.306;8.636;2023-05-02T16:40:27;5.87;;;2.70;;
10059;SDS011;5069;49.306;8.636;2023-05-02T16:43:28;6.43;;;3.70;;
10059;SDS011;5069;49.306;8.636;2023-05-02T16:46:30;3.53;;;3.00;;
10059;SDS011;5069;49.306;8.636;2023-05-02T16:49:32;5.07;;;3.33;;
10059;SDS011;5069;49.306;8.636;2023-05-02T16:52:34;6.43;;;4.00;;
10059;SDS011;5069;49.306;8.636;2023-05-02T16:55:37;7.13;;;3.70;;
10059;SDS011;5069;49.306;8.636;2023-05-02T16:58:41;10.20;;;3.53;;
10059;SDS011;5069;49.306;8.636;2023-05-02T17:01:42;4.00;;;3.60;;
10059;SDS011;5069;49.306;8.636;2023-05-02T17:04:43;8.07;;;4.03;;
10059;SDS011;5069;49.306;8.636;2023-05-02T17:07:45;4.13;;;3.57;;
10059;SDS011;5069;49.306;8.636;2023-05-02T17:10:47;4.30;;;3.90;;
10059;SDS011;5069;49.306;8.636;2023-05-02T17:13:50;4.10;;;3.67;;
10059;SDS011;5069;49.306;8.636;2023-05-02T17:16:52;6.67;;;3.57;;
10059;SDS011;5069;49.306;8.636;2023-05-02T17:19:54;5.73;;;3.60;;
10059;SDS011;5069;49.306;8.636;2023-05-02T17:22:56;4.03;;;3.50;;
10059;SDS011;5069;49.306;8.636;2023-05-02T17:25:57;3.90;;;3.50;;
10059;SDS011;5069;49.306;8.636;2023-05-02T17:28:59;7.97;;;3.50;;
10059;SDS011;5069;49.306;8.636;2023-05-02T17:32:01;4.80;;;3.83;;
10059;SDS011;5069;49.306;8.636;2023-05-02T17:35:02;4.57;;;3.70;;
10059;SDS011;5069;49.306;8.636;2023-05-02T17:38:04;6.30;;;4.17;;
10059;SDS011;5069;49.306;8.636;2023-05-02T17:41:06;5.30;;;4.30;;
10059;SDS011;5069;49.306;8.636;2023-05-02T17:44:08;4.60;;;4.10;;
10059;SDS011;5069;49.306;8.636;2023-05-02T17:47:10;5.13;;;4.37;;
10059;SDS011;5069;49.306;8.636;2023-05-02T17:50:13;5.63;;;4.07;;
10059;SDS011;5069;49.306;8.636;2023-05-02T17:53:15;4.80;;;4.30;;
10059;SDS011;5069;49.306;8.636;2023-05-02T17:56:17;7.93;;;4.40;;
10059;SDS011;5069;49.306;8.636;2023-05-02T17:59:21;5.10;;;4.60;;
10059;SDS011;5069;49.306;8.636;2023-05-02T18:02:23;4.50;;;4.10;;
10059;SDS011;5069;49.306;8.636;2023-05-02T18:05:26;5.23;;;4.70;;
10059;SDS011;5069;49.306;8.636;2023-05-02T18:08:28;5.97;;;4.47;;
10059;SDS011;5069;49.306;8.636;2023-05-02T18:11:31;5.40;;;4.23;;
10059;SDS011;5069;49.306;8.636;2023-05-02T18:14:33;5.30;;;4.80;;
10059;SDS011;5069;49.306;8.636;2023-05-02T18:17:35;6.23;;;4.53;;
10059;SDS011;5069;49.306;8.636;2023-05-02T18:20:37;7.17;;;4.30;;
10059;SDS011;5069;49.306;8.636;2023-05-02T18:23:41;7.27;;;5.03;;
10059;SDS011;5069;49.306;8.636;2023-05-02T18:26:42;4.63;;;4.20;;
10059;SDS011;5069;49.306;8.636;2023-05-02T18:29:44;6.40;;;4.53;;
10059;SDS011;5069;49.306;8.636;2023-05-02T18:32:45;6.17;;;4.30;;
10059;SDS011;5069;49.306;8.636;2023-05-02T18:35:47;6.27;;;4.60;;
10059;SDS011;5069;49.306;8.636;2023-05-02T18:38:49;5.07;;;4.20;;
10059;SDS011;5069;49.306;8.636;2023-05-02T18:41:50;4.53;;;4.07;;
10059;SDS011;5069;49.306;8.636;2023-05-02T18:44:52;5.47;;;4.33;;
10059;SDS011;5069;49.306;8.636;2023-05-02T18:47:53;6.60;;;4.30;;
10059;SDS011;5069;49.306;8.636;2023-05-02T18:50:55;5.77;;;4.17;;
10059;SDS011;5069;49.306;8.636;2023-05-02T18:53:57;4.00;;;3.60;;
10059;SDS011;5069;49.306;8.636;2023-05-02T18:57:00;9.00;;;3.80;;
10059;SDS011;5069;49.306;8.636;2023-05-02T19:00:03;5.17;;;3.80;;
10059;SDS011;5069;49.306;8.636;2023-05-02T19:03:06;4.37;;;3.20;;
10059;SDS011;5069;49.306;8.636;2023-05-02T19:06:08;5.87;;;3.47;;
10059;SDS011;5069;49.306;8.636;2023-05-02T19:09:10;6.67;;;3.53;;
10059;SDS011;5069;49.306;8.636;2023-05-02T19:12:15;5.93;;;3.17;;
10059;SDS011;5069;49.306;8.636;2023-05-02T19:15:17;4.43;;;3.20;;